Time;durP1;ratioP1;P1;durP2;ratioP2;P2;SDS_P1;SDS_P2;PMS_P1;PMS_P2;Temp;Humidity;BMP_temperature;BMP_pressure;BME280_temperature;BME280_humidity;BME280_pressure;Samples;Min_cycle;Max_cycle;Signal;HPM_P1;HPM_P2
2022/10/12 00:02:01;;;;;;;67.55;36.58;;;11.70;99.90;;;;;;6070357;23;20035;-87
2022/10/12 00:05:53;;;;;;;;;;;;;;;;;;;;;
2022/10/12 00:13:16;;;;;;;71.45;37.28;;;11.60;99.90;;;;;;6076262;23;20066;-91
2022/10/12 00:32:54;;;;;;;;;;;;;;;;;;;;;
2022/10/12 00:40:56;;;;;;;;;;;;;;;;;;;;;
2022/10/12 00:44:42;;;;;;;75.60;38.97;;;11.20;99.90;;;;;;5891354;24;20017;-92
2022/10/12 00:48:10;;;;;;;79.82;41.78;;;11.00;99.90;;;;;;6015646;23;20062;-93
2022/10/12 00:52:24;;;;;;;;;;;;;;;;;;;;;
2022/10/12 00:57:16;;;;;;;89.40;44.08;;;10.90;99.90;;;;;;6015403;23;20047;-90
2022/10/12 01:13:20;;;;;;;98.28;47.55;;;10.70;99.90;;;;;;6203144;23;20024;-92
2022/10/12 01:17:30;;;;;;;;;;;;;;;;;;;;;
2022/10/12 01:21:28;;;;;;;89.82;42.53;;;10.40;99.90;;;;;;6142426;23;20026;-95
2022/10/12 01:25:33;;;;;;;;;;;;;;;;;;;;;
2022/10/12 01:34:25;;;;;;;84.55;40.97;;;10.00;99.90;;;;;;5968669;24;20032;-92
2022/10/12 01:40:55;;;;;;;107.55;48.28;;;10.00;99.90;;;;;;6134657;23;20056;-92
2022/10/12 01:49:24;;;;;;;;;;;;;;;;;;;;;
2022/10/12 01:57:58;;;;;;;;;;;;;;;;;;;;;
2022/10/12 02:02:14;;;;;;;121.47;53.00;;;10.40;99.90;;;;;;5886480;24;20058;-92
2022/10/12 02:09:41;;;;;;;;;;;;;;;;;;;;;
2022/10/12 02:13:17;;;;;;;146.43;57.78;;;10.80;99.90;;;;;;6005018;23;20027;-92
2022/10/12 02:21:35;;;;;;;158.60;60.47;;;10.90;99.90;;;;;;6036616;23;20035;-93
2022/10/12 02:37:12;;;;;;;;;;;11.20;99.90;;;;;;5965958;23;20079;-94
2022/10/12 02:41:22;;;;;;;;;;;;;;;;;;;;;
2022/10/12 02:44:44;;;;;;;242.98;75.68;;;11.20;99.90;;;;;;5908601;24;20040;-90
2022/10/12 02:52:01;;;;;;;230.90;78.88;;;11.20;99.90;;;;;;6077224;23;20079;-93
2022/10/12 02:56:30;;;;;;;;;;;;;;;;;;;;;
2022/10/12 03:08:56;;;;;;;;;;;;;;;;;;;;;
2022/10/12 03:16:49;;;;;;;;;;;;;;;;;;;;;
2022/10/12 03:43:19;;;;;;;253.60;78.10;;;11.20;99.90;;;;;;6020460;22;6574507;-93
2022/10/12 03:47:02;;;;;;;235.02;70.82;;;11.20;99.90;;;;;;6226044;23;20035;-92
2022/10/12 03:59:16;;;;;;;;;;;;;;;;;;;;;
2022/10/12 04:02:41;;;;;;;;;;;;;;;;;;;;;
2022/10/12 04:06:20;;;;;;;288.33;82.32;;;11.20;99.90;;;;;;6212043;23;20059;-92
2022/10/12 04:09:17;;;;;;;258.95;78.53;;;11.20;99.90;;;;;;6206498;23;20114;-94
2022/10/12 04:12:05;;;;;;;287.02;84.35;;;11.20;99.90;;;;;;6205609;23;20055;-92
2022/10/12 04:15:27;;;;;;;;;;;;;;;;;;;;;
2022/10/12 04:23:01;;;;;;;288.23;90.50;;;11.20;99.90;;;;;;6113740;23;20022;-88
2022/10/12 04:25:48;;;;;;;415.90;92.95;;;11.10;99.90;;;;;;6085907;23;20030;-88
2022/10/12 04:28:35;;;;;;;302.17;91.32;;;11.20;99.90;;;;;;6105311;23;20023;-89
2022/10/12 04:31:22;;;;;;;282.30;85.72;;;11.20;99.90;;;;;;6105807;23;20037;-89
2022/10/12 04:34:10;;;;;;;263.98;88.22;;;11.20;99.90;;;;;;6103853;23;20128;-87
2022/10/12 04:36:57;;;;;;;255.88;84.70;;;11.20;99.90;;;;;;6104090;23;20635;-88
2022/10/12 04:39:44;;;;;;;252.25;81.60;;;11.20;99.90;;;;;;6085043;23;20030;-88
2022/10/12 04:42:31;;;;;;;247.05;79.80;;;11.20;99.90;;;;;;6102927;23;20044;-87
2022/10/12 04:45:21;;;;;;;192.25;70.90;;;11.20;99.90;;;;;;6082436;23;20105;-86
2022/10/12 04:48:09;;;;;;;203.98;73.80;;;11.20;99.90;;;;;;6077003;23;20030;-87
2022/10/12 04:50:56;;;;;;;191.38;70.65;;;11.20;99.90;;;;;;6096930;23;20026;-89
2022/10/12 04:53:45;;;;;;;201.52;73.80;;;11.10;99.90;;;;;;6097119;23;20105;-86
2022/10/12 04:56:33;;;;;;;187.25;67.97;;;11.20;99.90;;;;;;6097662;23;20026;-87
2022/10/12 04:59:20;;;;;;;180.50;67.47;;;11.10;99.90;;;;;;6145091;23;20104;-86
2022/10/12 05:02:07;;;;;;;217.20;73.50;;;11.10;99.90;;;;;;6217008;23;20317;-87
2022/10/12 05:04:54;;;;;;;186.38;69.22;;;11.10;99.90;;;;;;6221888;23;20028;-86
2022/10/12 05:07:51;;;;;;;194.10;70.13;;;11.10;99.90;;;;;;6219420;22;20052;-86
2022/10/12 05:10:39;;;;;;;185.10;66.97;;;11.20;99.90;;;;;;6217926;23;20025;-87
2022/10/12 05:13:27;;;;;;;197.95;70.20;;;11.20;99.90;;;;;;6222100;22;20096;-89
2022/10/12 05:16:14;;;;;;;161.95;60.50;;;11.20;99.90;;;;;;6222617;23;20304;-88
2022/10/12 05:19:02;;;;;;;177.57;63.83;;;11.20;99.90;;;;;;6221201;22;20103;-87
2022/10/12 05:21:52;;;;;;;171.35;64.88;;;11.20;99.90;;;;;;6220446;23;20047;-87
2022/10/12 05:24:42;;;;;;;168.63;62.33;;;11.20;99.90;;;;;;6226082;23;20029;-87
2022/10/12 05:27:29;;;;;;;176.85;66.25;;;11.20;99.90;;;;;;6228673;23;20020;-88
2022/10/12 05:30:16;;;;;;;154.98;58.78;;;11.20;99.90;;;;;;6234354;22;20028;-88
2022/10/12 05:33:04;;;;;;;145.88;58.55;;;11.20;99.90;;;;;;6235708;23;20094;-90
2022/10/12 05:35:53;;;;;;;169.23;63.55;;;11.20;99.90;;;;;;6231609;23;20086;-89
2022/10/12 05:38:42;;;;;;;149.23;58.17;;;11.20;99.90;;;;;;6228512;23;20020;-91
2022/10/12 05:41:30;;;;;;;148.20;58.40;;;11.30;99.90;;;;;;6220805;23;20371;-92
2022/10/12 05:44:21;;;;;;;174.93;61.90;;;11.30;99.90;;;;;;6219837;23;20051;-92
2022/10/12 05:51:14;;;;;;;154.60;59.55;;;11.20;99.90;;;;;;6128950;23;20054;-91
2022/10/12 05:54:01;;;;;;;161.30;60.80;;;11.30;99.90;;;;;;6112236;23;20092;-90
2022/10/12 05:56:51;;;;;;;164.27;64.00;;;11.30;99.90;;;;;;6114253;23;20291;-91
2022/10/12 05:59:39;;;;;;;148.80;59.53;;;11.30;99.90;;;;;;6137377;23;20095;-92
2022/10/12 06:02:29;;;;;;;144.90;59.38;;;11.30;99.90;;;;;;6135544;23;20031;-91
2022/10/12 06:05:18;;;;;;;162.23;62.40;;;11.30;99.90;;;;;;6116158;23;20026;-90
2022/10/12 06:08:27;;;;;;;152.23;60.75;;;11.40;99.90;;;;;;6136544;23;20036;-90
2022/10/12 06:11:22;;;;;;;142.82;56.33;;;11.40;99.90;;;;;;6222061;23;20020;-92
2022/10/12 06:14:13;;;;;;;164.77;62.17;;;11.40;99.90;;;;;;6222243;23;20028;-91
2022/10/12 06:17:03;;;;;;;147.57;60.78;;;11.40;99.90;;;;;;6223291;23;20035;-91
2022/10/12 06:19:57;;;;;;;140.98;56.20;;;11.40;99.90;;;;;;6222882;23;20024;-93
2022/10/12 06:22:47;;;;;;;144.82;58.30;;;11.40;99.90;;;;;;6220482;23;20028;-93
2022/10/12 06:25:44;;;;;;;147.15;60.85;;;11.50;99.90;;;;;;6218536;23;20025;-91
2022/10/12 06:28:31;;;;;;;150.70;61.70;;;11.50;99.90;;;;;;6222179;23;20028;-94
2022/10/12 06:31:20;;;;;;;123.47;53.83;;;11.40;99.90;;;;;;6216130;23;20033;-87
2022/10/12 06:34:10;;;;;;;134.50;57.22;;;11.50;99.90;;;;;;6218524;23;20039;-88
2022/10/12 06:36:57;;;;;;;129.38;55.72;;;11.50;99.90;;;;;;6217076;23;20087;-88
2022/10/12 06:39:48;;;;;;;132.05;56.80;;;11.60;99.90;;;;;;6216023;23;20102;-87
2022/10/12 06:42:48;;;;;;;121.68;54.60;;;11.70;99.90;;;;;;6231313;23;20381;-93
2022/10/12 06:45:44;;;;;;;126.60;57.45;;;11.70;99.90;;;;;;6234729;23;20080;-89
2022/10/12 06:48:39;;;;;;;121.95;54.30;;;11.70;99.90;;;;;;6229034;23;20428;-90
2022/10/12 06:51:27;;;;;;;121.50;54.22;;;11.60;99.90;;;;;;6233507;23;20030;-89
2022/10/12 06:54:18;;;;;;;112.65;53.78;;;11.60;99.90;;;;;;6242949;23;20047;-90
2022/10/12 06:57:08;;;;;;;111.97;53.10;;;11.60;99.90;;;;;;6242038;23;20017;-90
2022/10/12 06:59:58;;;;;;;99.32;49.70;;;11.70;99.90;;;;;;6231010;23;20083;-91
2022/10/12 07:02:51;;;;;;;93.97;48.95;;;11.80;99.90;;;;;;6232003;23;20056;-89
2022/10/12 07:05:38;;;;;;;91.68;48.55;;;11.90;99.90;;;;;;6228805;23;20005;-88
2022/10/12 07:08:25;;;;;;;89.38;47.25;;;12.00;99.90;;;;;;6233593;23;20025;-87
2022/10/12 07:11:13;;;;;;;93.97;48.42;;;12.10;99.90;;;;;;6225864;23;20052;-89
2022/10/12 07:14:03;;;;;;;79.88;44.83;;;12.10;99.90;;;;;;6225337;22;20040;-91
2022/10/12 07:16:50;;;;;;;96.03;47.83;;;12.10;99.90;;;;;;6223498;23;20460;-89
2022/10/12 07:19:41;;;;;;;90.15;45.72;;;12.10;99.90;;;;;;6224571;22;20024;-90
2022/10/12 07:22:28;;;;;;;79.80;44.35;;;12.10;99.90;;;;;;6216786;23;20056;-89
2022/10/12 07:25:16;;;;;;;81.72;43.97;;;12.10;99.90;;;;;;6216257;23;20024;-89
2022/10/12 07:28:05;;;;;;;75.93;43.17;;;12.10;99.90;;;;;;6218067;23;20322;-88
2022/10/12 07:31:08;;;;;;;77.43;43.42;;;12.20;99.90;;;;;;6216464;23;20025;-89
2022/10/12 07:33:55;;;;;;;76.70;42.88;;;12.20;99.90;;;;;;6216951;23;20048;-89
2022/10/12 07:36:44;;;;;;;77.90;42.97;;;12.30;99.90;;;;;;6216331;23;20028;-90
2022/10/12 07:39:45;;;;;;;72.25;42.15;;;12.30;99.90;;;;;;6218226;23;20446;-88
2022/10/12 07:42:33;;;;;;;67.60;39.40;;;12.30;99.90;;;;;;6217890;23;20079;-88
2022/10/12 07:45:23;;;;;;;62.78;38.40;;;12.40;99.90;;;;;;6225505;22;20028;-89
2022/10/12 07:48:12;;;;;;;63.45;37.65;;;12.40;99.90;;;;;;6231359;23;20028;-90
2022/10/12 07:51:09;;;;;;;56.25;36.33;;;12.50;99.90;;;;;;6223988;23;20028;-88
2022/10/12 07:53:59;;;;;;;55.13;35.47;;;12.70;99.90;;;;;;6216004;23;20122;-88
2022/10/12 07:56:46;;;;;;;44.78;30.90;;;12.80;99.90;;;;;;6214078;23;20400;-88
2022/10/12 07:59:35;;;;;;;45.20;31.67;;;12.90;99.90;;;;;;6216982;23;20099;-88
2022/10/12 08:02:24;;;;;;;42.75;29.83;;;13.00;99.90;;;;;;6216919;23;20482;-87
2022/10/12 08:05:12;;;;;;;39.15;28.40;;;13.00;99.90;;;;;;6215390;23;20032;-89
2022/10/12 08:07:59;;;;;;;42.55;28.17;;;13.10;99.90;;;;;;6217180;23;20103;-88
2022/10/12 08:10:48;;;;;;;38.88;27.48;;;13.20;99.90;;;;;;6219168;23;20024;-87
2022/10/12 08:13:36;;;;;;;42.60;28.58;;;13.30;99.90;;;;;;6214458;23;20103;-87
2022/10/12 08:16:26;;;;;;;36.83;25.77;;;13.30;99.90;;;;;;6214778;23;20020;-87
2022/10/12 08:19:13;;;;;;;41.65;28.52;;;13.40;16.50;;;;;;6215017;23;20033;-86
2022/10/12 08:22:00;;;;;;;44.22;28.38;;;13.40;99.90;;;;;;6218333;23;20083;-86
2022/10/12 08:24:49;;;;;;;38.65;27.02;;;13.50;99.90;;;;;;6215175;23;20104;-86
2022/10/12 08:27:39;;;;;;;39.70;27.27;;;13.60;1.00;;;;;;6218204;23;20036;-86
2022/10/12 08:30:27;;;;;;;38.53;26.73;;;13.50;99.90;;;;;;6218408;22;20281;-85
2022/10/12 08:33:15;;;;;;;44.30;28.52;;;13.50;99.90;;;;;;6215385;23;20432;-86
2022/10/12 08:36:04;;;;;;;43.00;27.77;;;13.40;99.90;;;;;;6217123;23;20114;-86
2022/10/12 08:38:53;;;;;;;47.63;28.58;;;13.40;99.90;;;;;;6219055;22;20052;-86
2022/10/12 08:41:54;;;;;;;45.83;29.73;;;13.40;1.00;;;;;;6219396;22;20036;-86
2022/10/12 08:45:00;;;;;;;48.10;28.20;;;13.40;1.00;;;;;;6215925;23;20696;-85
2022/10/12 08:48:10;;;;;;;41.25;27.55;;;13.40;99.90;;;;;;6218100;23;20024;-85
2022/10/12 08:51:09;;;;;;;39.33;26.25;;;13.60;99.90;;;;;;6217697;23;20028;-86
2022/10/12 08:54:07;;;;;;;44.17;27.33;;;13.70;99.90;;;;;;6214980;23;20025;-86
2022/10/12 08:56:55;;;;;;;46.42;26.00;;;13.90;16.70;;;;;;6217158;23;20179;-85
2022/10/12 08:59:45;;;;;;;42.67;26.48;;;14.00;1.00;;;;;;6216239;23;20025;-86
2022/10/12 09:03:01;;;;;;;39.03;24.73;;;14.10;99.90;;;;;;6219123;22;20095;-85
2022/10/12 09:06:01;;;;;;;43.00;23.10;;;14.10;99.90;;;;;;6218469;22;20099;-86
2022/10/12 09:09:00;;;;;;;41.65;22.40;;;14.10;1.00;;;;;;6216824;23;20490;-84
2022/10/12 09:12:20;;;;;;;37.83;22.10;;;14.00;1.00;;;;;;6218562;23;20032;-85
2022/10/12 09:15:23;;;;;;;37.05;20.48;;;13.80;99.90;;;;;;6218515;23;20106;-86
2022/10/12 09:18:14;;;;;;;;;;;13.90;99.90;;;;;;6218895;22;20211;-86
2022/10/12 09:21:06;;;;;;;37.83;21.17;;;13.90;99.90;;;;;;6218165;23;19973;-87
2022/10/12 09:23:56;;;;;;;36.78;21.23;;;13.80;99.90;;;;;;6219681;22;20024;-87
2022/10/12 09:26:45;;;;;;;34.25;20.60;;;13.70;99.90;;;;;;6215617;23;20084;-86
2022/10/12 09:29:33;;;;;;;39.60;20.88;;;13.70;99.90;;;;;;6218365;23;20119;-87
2022/10/12 09:32:28;;;;;;;38.72;21.25;;;13.70;99.90;;;;;;6219706;22;20476;-88
2022/10/12 09:35:15;;;;;;;47.30;21.85;;;13.80;99.90;;;;;;6217321;23;20513;-87
2022/10/12 09:38:05;;;;;;;34.45;19.77;;;13.90;99.90;;;;;;6217671;23;20024;-85
2022/10/12 09:40:52;;;;;;;36.47;19.35;;;14.00;99.90;;;;;;6216310;23;20021;-91
2022/10/12 09:43:42;;;;;;;36.58;19.00;;;14.00;99.90;;;;;;6222602;23;20056;-89
2022/10/12 09:46:46;;;;;;;34.28;19.10;;;14.00;99.90;;;;;;6228881;23;20083;-86
2022/10/12 09:49:44;;;;;;;32.88;19.80;;;14.10;99.90;;;;;;6217198;22;20110;-90
2022/10/12 09:52:43;;;;;;;42.60;20.17;;;14.20;99.90;;;;;;6214971;23;20044;-87
2022/10/12 09:55:30;;;;;;;38.03;18.60;;;14.00;99.90;;;;;;6216818;23;20147;-85
2022/10/12 09:58:20;;;;;;;41.88;23.00;;;14.10;99.90;;;;;;6217848;23;20032;-88
2022/10/12 10:01:30;;;;;;;36.03;19.65;;;14.10;99.90;;;;;;6218943;23;20100;-86
2022/10/12 10:04:28;;;;;;;34.05;19.48;;;14.20;99.90;;;;;;6229263;22;20118;-85
2022/10/12 10:07:32;;;;;;;37.22;20.23;;;14.30;99.90;;;;;;6233493;22;20104;-89
2022/10/12 10:10:24;;;;;;;31.45;16.88;;;14.40;99.90;;;;;;6234914;22;20024;-88
2022/10/12 10:13:17;;;;;;;31.27;19.75;;;14.50;99.90;;;;;;6230775;23;20103;-87
2022/10/12 10:16:09;;;;;;;32.17;18.73;;;14.70;99.90;;;;;;6232869;23;20016;-89
2022/10/12 10:19:00;;;;;;;32.38;18.52;;;14.70;42.30;;;;;;6234744;22;20025;-87
2022/10/12 10:21:47;;;;;;;31.10;17.48;;;14.60;17.40;;;;;;6231624;23;20028;-85
2022/10/12 10:24:35;;;;;;;32.17;18.05;;;14.60;22.20;;;;;;6231790;23;20040;-86
2022/10/12 10:27:38;;;;;;;28.65;16.05;;;14.70;6.10;;;;;;6217757;23;20025;-86
2022/10/12 10:30:26;;;;;;;31.38;15.35;;;14.90;1.00;;;;;;6218311;23;20021;-87
2022/10/12 10:33:26;;;;;;;29.80;14.57;;;14.90;1.00;;;;;;6218270;22;20106;-85
2022/10/12 10:36:25;;;;;;;25.20;14.55;;;14.90;1.00;;;;;;6217683;23;20346;-83
2022/10/12 10:39:36;;;;;;;27.65;14.95;;;15.00;1.00;;;;;;6217295;23;20016;-87
2022/10/12 10:42:27;;;;;;;25.15;13.95;;;15.10;1.00;;;;;;6214697;23;20117;-86
2022/10/12 10:45:29;;;;;;;24.17;13.43;;;15.10;1.00;;;;;;6216964;22;20056;-84
2022/10/12 10:48:20;;;;;;;28.50;14.87;;;15.30;1.00;;;;;;6217379;22;20439;-85
2022/10/12 10:51:07;;;;;;;29.17;14.75;;;15.20;1.00;;;;;;6217337;22;20029;-86
2022/10/12 10:54:15;;;;;;;23.20;14.10;;;15.20;1.00;;;;;;6216360;23;20195;-85
2022/10/12 10:57:20;;;;;;;26.45;14.80;;;15.30;1.00;;;;;;6216630;23;20107;-84
2022/10/12 11:00:23;;;;;;;27.63;14.52;;;15.30;1.00;;;;;;6213738;23;20095;-86
2022/10/12 11:03:38;;;;;;;33.78;14.52;;;15.20;1.00;;;;;;6217931;23;20029;-85
2022/10/12 11:06:38;;;;;;;24.10;12.65;;;15.10;1.00;;;;;;6213575;23;20444;-86
2022/10/12 11:09:50;;;;;;;25.40;13.95;;;15.20;1.00;;;;;;6214663;23;20051;-87
2022/10/12 11:12:41;;;;;;;;;;;15.40;1.00;;;;;;6216596;23;20024;-85
2022/10/12 11:15:45;;;;;;;22.08;12.30;;;15.40;1.00;;;;;;6212249;23;19923;-84
2022/10/12 11:18:49;;;;;;;27.67;13.85;;;15.50;1.00;;;;;;6216161;23;20020;-88
2022/10/12 11:21:46;;;;;;;23.42;14.43;;;15.40;1.00;;;;;;6215533;23;20047;-91
2022/10/12 11:24:49;;;;;;;23.60;14.20;;;15.20;1.00;;;;;;6215562;23;20052;-90
2022/10/12 11:27:39;;;;;;;27.17;14.98;;;15.30;1.00;;;;;;6215790;23;20028;-89
2022/10/12 11:30:35;;;;;;;27.52;15.65;;;15.20;1.00;;;;;;6219932;22;20454;-91
2022/10/12 11:33:37;;;;;;;29.98;15.40;;;15.10;1.00;;;;;;6219257;23;20083;-90
2022/10/12 11:36:28;;;;;;;31.92;15.27;;;15.10;1.00;;;;;;6226182;22;20090;-90
2022/10/12 11:39:37;;;;;;;29.20;14.55;;;15.00;1.00;;;;;;6218257;23;20367;-88
2022/10/12 11:42:40;;;;;;;22.15;13.50;;;15.00;1.00;;;;;;6216563;23;20036;-88
2022/10/12 11:45:39;;;;;;;23.25;13.48;;;15.20;1.00;;;;;;6219215;23;20025;-89
2022/10/12 11:48:53;;;;;;;29.65;14.45;;;15.30;1.00;;;;;;6220336;22;20056;-90
2022/10/12 11:51:47;;;;;;;23.60;14.10;;;15.40;1.00;;;;;;6217715;23;20083;-88
2022/10/12 11:55:05;;;;;;;27.25;14.27;;;15.50;1.00;;;;;;6222948;23;20052;-88
2022/10/12 11:57:57;;;;;;;23.88;13.52;;;15.80;1.00;;;;;;6229216;23;20049;-91
2022/10/12 12:01:06;;;;;;;24.27;14.55;;;15.80;99.90;;;;;;6229169;23;20096;-90
2022/10/12 12:04:21;;;;;;;22.33;13.50;;;16.00;99.90;;;;;;6226947;23;20025;-87
2022/10/12 12:07:52;;;;;;;25.10;13.77;;;16.20;99.90;;;;;;6225656;23;20032;-87
2022/10/12 12:10:40;;;;;;;28.88;13.27;;;16.30;99.90;;;;;;6218575;23;20343;-85
2022/10/12 12:13:30;;;;;;;20.95;12.05;;;16.40;99.90;;;;;;6223165;22;20044;-88
2022/10/12 12:16:18;;;;;;;25.60;12.38;;;16.40;99.90;;;;;;6226042;23;20029;-87
2022/10/12 12:19:13;;;;;;;25.90;11.65;;;16.30;99.90;;;;;;6228892;23;20020;-87
2022/10/12 12:22:11;;;;;;;22.15;12.10;;;16.60;99.90;;;;;;6230628;23;20020;-90
2022/10/12 12:25:09;;;;;;;19.33;12.15;;;16.60;99.90;;;;;;6226863;23;20036;-89
2022/10/12 12:28:23;;;;;;;20.00;11.70;;;16.40;99.90;;;;;;6222762;23;20028;-89
2022/10/12 12:31:23;;;;;;;21.77;13.00;;;16.40;99.90;;;;;;6222796;23;20052;-91
2022/10/12 12:34:16;;;;;;;20.50;12.45;;;16.10;99.90;;;;;;6224521;23;20055;-91
2022/10/12 12:37:13;;;;;;;25.70;12.68;;;16.00;99.90;;;;;;6227537;22;20021;-91
2022/10/12 12:40:00;;;;;;;23.27;12.85;;;16.00;99.90;;;;;;6225428;23;20112;-89
2022/10/12 12:42:50;;;;;;;21.10;10.18;;;16.10;99.90;;;;;;6225177;23;20029;-91
2022/10/12 12:45:39;;;;;;;30.63;11.40;;;16.30;99.90;;;;;;6230414;23;20535;-90
2022/10/12 12:48:51;;;;;;;21.35;11.30;;;16.20;99.90;;;;;;6228655;23;20032;-85
2022/10/12 12:51:50;;;;;;;20.55;11.80;;;16.10;99.90;;;;;;6228493;23;20072;-91
2022/10/12 12:54:47;;;;;;;18.58;10.13;;;16.00;99.90;;;;;;6226516;23;20055;-90
2022/10/12 12:57:56;;;;;;;17.65;11.40;;;16.00;99.90;;;;;;6227422;23;20040;-91
2022/10/12 13:00:49;;;;;;;21.25;10.52;;;16.10;99.90;;;;;;6223864;23;20025;-93
2022/10/12 13:03:39;;;;;;;;;;;16.20;99.90;;;;;;6219627;23;20086;-91
2022/10/12 13:07:21;;;;;;;14.30;9.40;;;16.30;99.90;;;;;;6219019;23;19930;-91
2022/10/12 13:10:43;;;;;;;18.85;9.60;;;16.30;99.90;;;;;;6165048;23;20090;-88
2022/10/12 13:13:51;;;;;;;19.20;9.65;;;16.10;99.90;;;;;;6217763;23;20028;-87
2022/10/12 13:17:11;;;;;;;19.00;8.40;;;16.20;99.90;;;;;;6218062;23;20138;-88
2022/10/12 13:20:24;;;;;;;17.65;9.02;;;16.60;99.90;;;;;;6218633;23;20162;-89
2022/10/12 13:23:19;;;;;;;17.63;8.43;;;17.40;99.90;;;;;;6219013;23;20028;-88
2022/10/12 13:26:14;;;;;;;16.42;7.18;;;18.40;99.90;;;;;;6223011;23;20052;-88
2022/10/12 13:29:11;;;;;;;13.60;6.47;;;20.10;99.90;;;;;;6226227;23;20052;-89
2022/10/12 13:32:01;;;;;;;13.52;6.40;;;22.30;99.90;;;;;;6227500;22;20104;-88
2022/10/12 13:34:53;;;;;;;11.00;6.65;;;23.20;99.90;;;;;;6222617;22;20032;-89
2022/10/12 13:37:43;;;;;;;10.18;6.03;;;21.70;99.90;;;;;;6221206;23;20035;-88
2022/10/12 13:40:41;;;;;;;8.35;4.95;;;21.10;99.90;;;;;;6219042;22;20028;-87
2022/10/12 13:44:03;;;;;;;12.80;5.68;;;20.60;99.90;;;;;;6218837;22;20083;-89
2022/10/12 13:46:55;;;;;;;9.07;5.80;;;20.30;99.90;;;;;;6105732;23;20362;-87
2022/10/12 13:49:42;;;;;;;15.73;5.82;;;19.60;99.90;;;;;;6216750;23;20375;-87
2022/10/12 13:52:32;;;;;;;11.52;5.50;;;19.60;99.90;;;;;;6215156;23;20028;-88
2022/10/12 13:55:26;;;;;;;9.65;4.32;;;19.20;99.90;;;;;;6217831;23;20025;-88
2022/10/12 13:58:24;;;;;;;15.70;4.75;;;20.50;99.90;;;;;;6216982;23;20056;-88
2022/10/12 14:01:12;;;;;;;8.73;4.30;;;22.10;99.90;;;;;;6219433;23;20154;-89
2022/10/12 14:04:04;;;;;;;7.95;3.45;;;21.90;93.80;;;;;;6220602;23;20039;-91
2022/10/12 14:07:02;;;;;;;9.67;4.70;;;21.90;94.60;;;;;;6219616;22;20031;-88
2022/10/12 14:09:57;;;;;;;7.63;4.00;;;22.80;77.80;;;;;;6218731;22;20028;-90
2022/10/12 14:12:47;;;;;;;11.32;4.60;;;22.70;73.70;;;;;;6216855;23;20119;-91
2022/10/12 14:15:38;;;;;;;10.07;3.78;;;22.50;63.70;;;;;;6218132;23;20028;-89
2022/10/12 14:18:43;;;;;;;8.18;5.13;;;22.90;59.30;;;;;;6220434;23;20087;-88
2022/10/12 14:21:31;;;;;;;7.45;4.63;;;22.90;47.00;;;;;;6219410;23;20289;-90
2022/10/12 14:24:23;;;;;;;10.80;4.18;;;21.80;54.60;;;;;;6216106;23;20025;-88
2022/10/12 14:27:24;;;;;;;7.40;4.40;;;21.80;54.50;;;;;;6218384;22;20024;-87
2022/10/12 14:30:21;;;;;;;19.98;3.88;;;22.60;49.10;;;;;;6218698;22;20052;-90
2022/10/12 14:33:14;;;;;;;15.13;5.45;;;23.20;43.50;;;;;;6218108;23;20786;-91
2022/10/12 14:36:23;;;;;;;9.05;4.50;;;23.20;40.10;;;;;;6214818;23;20021;-88
2022/10/12 14:39:13;;;;;;;9.73;4.57;;;23.40;33.90;;;;;;6217295;23;20025;-88
2022/10/12 14:42:32;;;;;;;11.15;3.88;;;23.10;32.10;;;;;;6217497;23;20028;-90
2022/10/12 14:45:23;;;;;;;8.50;3.80;;;23.30;32.70;;;;;;6217203;23;20108;-90
2022/10/12 14:48:21;;;;;;;8.25;4.57;;;23.10;30.00;;;;;;6216197;23;20088;-89
2022/10/12 14:51:09;;;;;;;9.60;4.47;;;22.80;29.80;;;;;;6215606;23;20032;-89
2022/10/12 14:54:03;;;;;;;12.20;5.15;;;22.90;29.70;;;;;;6216608;23;20187;-90
2022/10/12 14:56:53;;;;;;;9.27;4.28;;;22.50;28.60;;;;;;6217997;22;20020;-89
2022/10/12 14:59:44;;;;;;;14.57;4.63;;;23.10;27.70;;;;;;6218122;23;20035;-90
2022/10/12 15:02:33;;;;;;;9.85;5.15;;;23.60;21.40;;;;;;6217460;23;20031;-89
2022/10/12 15:05:22;;;;;;;12.02;4.80;;;23.00;22.50;;;;;;6216184;23;20077;-89
2022/10/12 15:08:10;;;;;;;14.10;5.03;;;22.70;22.70;;;;;;6226906;22;20033;-88
2022/10/12 15:10:57;;;;;;;15.20;5.60;;;22.50;23.40;;;;;;6232468;23;20080;-89
2022/10/12 15:13:49;;;;;;;11.70;5.40;;;22.40;23.00;;;;;;6232621;23;20040;-89
2022/10/12 15:16:37;;;;;;;11.90;5.47;;;21.90;21.70;;;;;;6239026;22;20028;-90
2022/10/12 15:19:25;;;;;;;12.63;5.20;;;21.60;25.10;;;;;;6234091;23;20055;-87
2022/10/12 15:22:17;;;;;;;10.80;5.28;;;22.10;27.60;;;;;;6241577;22;20032;-85
2022/10/12 15:25:14;;;;;;;13.57;6.60;;;22.60;30.00;;;;;;6234984;23;20059;-88
2022/10/12 15:28:02;;;;;;;8.93;5.95;;;21.80;20.70;;;;;;6236511;23;20085;-89
2022/10/12 15:30:54;;;;;;;12.63;6.40;;;21.30;23.20;;;;;;6243661;22;20028;-84
2022/10/12 15:34:02;;;;;;;12.68;6.05;;;20.80;27.20;;;;;;6236737;22;20495;-87
2022/10/12 15:36:52;;;;;;;18.17;6.30;;;20.60;27.60;;;;;;6237092;23;20025;-90
2022/10/12 15:39:41;;;;;;;12.75;6.03;;;20.40;35.00;;;;;;6230230;23;20040;-90
2022/10/12 15:42:28;;;;;;;11.95;6.18;;;20.00;39.10;;;;;;6218213;22;20112;-90
2022/10/12 15:45:19;;;;;;;16.73;6.25;;;20.20;43.80;;;;;;6220689;23;20048;-91
2022/10/12 15:48:08;;;;;;;11.15;6.13;;;20.00;49.90;;;;;;6223366;23;20020;-89
2022/10/12 15:50:55;;;;;;;14.20;5.88;;;19.60;54.70;;;;;;6237077;22;20024;-89
2022/10/12 15:53:44;;;;;;;14.88;5.95;;;19.20;64.60;;;;;;6236458;22;20024;-90
2022/10/12 15:56:35;;;;;;;11.98;6.40;;;18.90;80.40;;;;;;6229925;23;20064;-88
2022/10/12 15:59:24;;;;;;;13.05;6.50;;;18.40;91.80;;;;;;6219063;23;20025;-91
2022/10/12 16:02:14;;;;;;;13.38;7.43;;;18.00;99.90;;;;;;6218036;23;20096;-91
2022/10/12 16:05:01;;;;;;;19.58;8.43;;;17.50;99.90;;;;;;6224081;23;20048;-89
2022/10/12 16:07:50;;;;;;;17.48;7.97;;;16.80;99.90;;;;;;6229057;23;20028;-93
2022/10/12 16:10:39;;;;;;;20.80;8.23;;;16.20;99.90;;;;;;6220441;22;20021;-91
2022/10/12 16:13:27;;;;;;;17.25;8.18;;;15.60;99.90;;;;;;6216930;23;20079;-88
2022/10/12 16:16:15;;;;;;;19.45;8.73;;;15.10;99.90;;;;;;6219012;23;20024;-88
2022/10/12 16:19:03;;;;;;;20.25;9.85;;;14.60;99.90;;;;;;6218625;23;20473;-92
2022/10/12 16:21:50;;;;;;;13.90;9.57;;;14.40;99.90;;;;;;6219088;22;20052;-89
2022/10/12 16:24:38;;;;;;;21.92;9.82;;;14.10;99.90;;;;;;6193342;23;20029;-89
2022/10/12 16:27:26;;;;;;;18.40;10.00;;;13.90;1.00;;;;;;6216810;23;20332;-88
2022/10/12 16:30:17;;;;;;;20.83;11.05;;;13.70;1.00;;;;;;6215746;23;20056;-90
2022/10/12 16:33:04;;;;;;;21.10;11.80;;;13.60;1.00;;;;;;6216932;23;20025;-91
2022/10/12 16:35:52;;;;;;;29.67;14.80;;;13.50;1.00;;;;;;6225251;22;20052;-88
2022/10/12 16:38:43;;;;;;;29.63;14.70;;;13.40;1.00;;;;;;6230488;23;20622;-89
2022/10/12 16:41:30;;;;;;;31.13;14.18;;;13.30;44.00;;;;;;6231069;22;20055;-88
2022/10/12 16:44:23;;;;;;;22.80;13.50;;;13.20;99.90;;;;;;6223496;23;20032;-90
2022/10/12 16:47:11;;;;;;;25.10;12.10;;;13.10;99.90;;;;;;6218428;23;20115;-89
2022/10/12 16:50:06;;;;;;;23.20;11.32;;;13.00;99.90;;;;;;6217814;23;20029;-90
2022/10/12 16:52:55;;;;;;;23.90;11.32;;;12.90;99.90;;;;;;6227135;22;20028;-90
2022/10/12 16:55:42;;;;;;;16.75;10.00;;;12.80;99.90;;;;;;6225196;23;20161;-91
2022/10/12 16:58:30;;;;;;;17.45;9.98;;;12.80;99.90;;;;;;6217737;23;20029;-90
2022/10/12 17:01:17;;;;;;;17.70;10.75;;;12.60;99.90;;;;;;6220327;23;20075;-91
2022/10/12 17:04:05;;;;;;;20.75;11.27;;;12.50;1.00;;;;;;6228443;23;20087;-90
2022/10/12 17:06:53;;;;;;;22.60;12.07;;;12.50;1.00;;;;;;6225962;23;20483;-89
2022/10/12 17:09:40;;;;;;;21.20;11.95;;;12.60;25.70;;;;;;6228556;23;20028;-90
2022/10/12 17:12:28;;;;;;;22.23;11.00;;;12.60;72.20;;;;;;6232195;23;20028;-91
2022/10/12 17:15:17;;;;;;;29.08;12.32;;;12.50;76.00;;;;;;6229191;23;20032;-88
2022/10/12 17:18:10;;;;;;;25.10;12.52;;;12.50;96.50;;;;;;6223323;23;20043;-91
2022/10/12 17:21:07;;;;;;;24.33;13.48;;;12.40;99.90;;;;;;6219952;23;20027;-92
2022/10/12 17:23:59;;;;;;;19.42;12.90;;;12.40;99.90;;;;;;6219959;23;20024;-91
2022/10/12 17:26:47;;;;;;;27.00;13.43;;;12.20;99.90;;;;;;6222639;23;20039;-89
2022/10/12 17:30:11;;;;;;;25.50;15.07;;;12.10;99.90;;;;;;6224472;23;20034;-90
2022/10/12 17:33:19;;;;;;;26.92;14.38;;;11.90;99.90;;;;;;6215554;23;20031;-93
2022/10/12 17:36:12;;;;;;;25.88;15.02;;;11.80;99.90;;;;;;6222529;22;20024;-91
2022/10/12 17:39:04;;;;;;;25.50;13.70;;;11.60;1.00;;;;;;6217842;23;20414;-91
2022/10/12 17:41:55;;;;;;;21.63;14.45;;;11.60;99.90;;;;;;6218576;23;20056;-90
2022/10/12 17:44:44;;;;;;;26.63;14.27;;;11.50;99.90;;;;;;6220147;23;20024;-90
2022/10/12 17:47:31;;;;;;;27.15;13.85;;;11.40;1.00;;;;;;6217940;23;20292;-90